Time;durP1;ratioP1;P1;durP2;ratioP2;P2;SDS_P1;SDS_P2;PMS_P1;PMS_P2;Temp;Humidity;BMP_temperature;BMP_pressure;BME280_temperature;BME280_humidity;BME280_pressure;Samples;Min_cycle;Max_cycle;Signal;HPM_P1;HPM_P2
2022/02/05 00:02:47;;;;;;;;;;;;;;;12.32;46.66;100706.44;4426856;32;19989;-70
2022/02/05 00:05:16;;;;;;;;;;;;;;;11.75;47.77;100698.94;4429495;32;19941;-70
2022/02/05 00:07:49;;;;;;;;;;;;;;;12.50;46.87;100703.84;4429081;32;19953;-70
2022/02/05 00:13:35;;;;;;;;;;;;;;;12.77;46.54;100710.63;4428807;32;19957;-70
2022/02/05 00:40:47;;;;;;;;;;;;;;;12.57;46.44;100726.19;4405780;32;20315;-70
2022/02/05 00:43:15;;;;;;;;;;;;;;;12.55;46.68;100712.53;4407093;32;20439;-70
2022/02/05 00:45:44;;;;;;;;;;;;;;;12.64;45.94;100715.47;4406530;32;19962;-70
2022/02/05 00:48:11;;;;;;;;;;;;;;;12.95;46.22;100713.59;4409037;32;20008;-70
2022/02/05 00:50:41;;;;;;;;;;;;;;;13.03;46.24;100700.06;4408166;32;20397;-70
2022/02/05 00:53:16;;;;;;;;;;;;;;;13.01;45.52;100711.03;4405845;32;19996;-70
2022/02/05 00:55:49;;;;;;;;;;;;;;;12.73;45.97;100717.63;4406308;32;20433;-70
2022/02/05 00:58:14;;;;;;;;;;;;;;;12.82;46.34;100726.19;4404037;32;20001;-70
2022/02/05 01:00:40;;;;;;;;;;;;;;;12.80;45.49;100721.00;4408427;32;20031;-70
2022/02/05 01:03:06;;;;;;;;;;;;;;;12.75;44.94;100727.22;4406435;32;19968;-70
2022/02/05 01:05:34;;;;;;;;;;;;;;;12.64;44.55;100731.63;4395432;32;19957;-70
2022/02/05 01:07:59;;;;;;;;;;;;;;;12.58;44.71;100734.22;4407024;32;19969;-70
2022/02/05 01:10:25;;;;;;;;;;;;;;;12.52;44.58;100744.50;4408890;32;19978;-70
2022/02/05 01:12:56;;;;;;;;;;;;;;;12.61;44.79;100743.84;4409546;32;19990;-70
2022/02/05 01:15:26;;;;;;;;;;;;;;;12.95;44.36;100741.09;4405733;32;20016;-71
2022/02/05 01:17:58;;;;;;;;;;;;;;;12.87;44.58;100737.72;4408656;32;20009;-71
2022/02/05 01:23:13;;;;;;;;;;;;;;;12.81;44.85;100750.03;4408832;32;19994;-70
2022/02/05 01:25:45;;;;;;;;;;;;;;;12.63;45.28;100761.91;4406425;32;20019;-70
2022/02/05 01:28:18;;;;;;;;;;;;;;;12.94;44.47;100770.56;4403706;32;20016;-70
2022/02/05 01:30:47;;;;;;;;;;;;;;;12.91;44.10;100763.78;4395857;32;19958;-70
2022/02/05 01:48:56;;;;;;;;;;;;;;;13.07;44.71;100780.63;4421059;32;20001;-70
2022/02/05 01:53:03;;;;;;;;;;;;;;;12.96;44.29;100774.53;3951148;32;15722631;-70
2022/02/05 01:56:33;;;;;;;;;;;;;;;12.96;44.29;100774.53;4431654;32;19996;-70
2022/02/05 01:58:21;;;;;;;;;;;;;;;12.71;44.66;100766.09;4433043;32;19993;-69
2022/02/05 02:11:46;;;;;;;;;;;;;;;12.52;44.95;100772.72;4427471;32;20323;-70
2022/02/05 02:22:30;;;;;;;;;;;;;;;12.98;43.91;100783.31;3951657;32;15725428;-69
2022/02/05 02:30:17;;;;;;;;;;;;;;;13.07;44.05;100789.09;3952675;32;15721626;-68
2022/02/05 02:32:47;;;;;;;;;;;;;;;13.07;44.05;100789.09;4427723;32;19992;-68
2022/02/05 02:35:19;;;;;;;;;;;;;;;12.84;44.58;100797.13;4432126;32;19942;-68
2022/02/05 02:43:05;;;;;;;;;;;;;;;12.79;45.18;100792.81;3955030;32;15722567;-70
2022/02/05 02:45:32;;;;;;;;;;;;;;;12.79;45.18;100792.81;4434741;32;19975;-69
2022/02/05 02:47:58;;;;;;;;;;;;;;;12.36;45.87;100781.28;4437338;32;20386;-69
2022/02/05 02:58:34;;;;;;;;;;;;;;;12.39;45.94;100794.50;4431637;32;19957;-69
2022/02/05 03:01:01;;;;;;;;;;;;;;;12.44;45.81;100791.12;4427004;32;20072;-69
2022/02/05 03:03:27;;;;;;;;;;;;;;;12.48;45.90;100791.81;4427985;32;19997;-69
2022/02/05 03:05:53;;;;;;;;;;;;;;;12.39;46.43;100788.09;4428422;32;20018;-69
2022/02/05 03:08:19;;;;;;;;;;;;;;;12.52;46.17;100800.19;4430209;32;19968;-69
2022/02/05 03:10:44;;;;;;;;;;;;;;;12.66;46.05;100809.00;4426675;32;20403;-69
2022/02/05 03:13:10;;;;;;;;;;;;;;;12.53;46.30;100807.41;4430312;32;19985;-69
2022/02/05 03:15:38;;;;;;;;;;;;;;;12.58;45.82;100801.19;4431812;32;19968;-69
2022/02/05 03:18:11;;;;;;;;;;;;;;;12.50;46.22;100809.09;4427922;32;19997;-69
2022/02/05 03:20:36;;;;;;;;;;;;;;;12.51;46.38;100807.84;4429181;32;20333;-70
2022/02/05 03:23:03;;;;;;;;;;;;;;;12.54;46.16;100815.41;4426159;32;20040;-70
2022/02/05 03:25:30;;;;;;;;;;;;;;;12.52;46.46;100812.25;4429734;32;20292;-70
2022/02/05 03:27:56;;;;;;;;;;;;;;;12.52;46.42;100809.41;4428813;32;21399;-70
2022/02/05 03:30:22;;;;;;;;;;;;;;;12.65;46.19;100801.78;4428377;32;19996;-70
2022/02/05 03:32:47;;;;;;;;;;;;;;;12.75;45.94;100802.66;4426352;32;20001;-70
2022/02/05 03:35:13;;;;;;;;;;;;;;;12.64;45.72;100805.81;4427118;32;20452;-69
2022/02/05 03:37:38;;;;;;;;;;;;;;;12.37;46.30;100794.19;4425989;32;20000;-69
2022/02/05 03:40:04;;;;;;;;;;;;;;;12.26;46.82;100802.16;4428856;32;19972;-69
2022/02/05 03:42:30;;;;;;;;;;;;;;;12.40;46.51;100801.75;4426130;32;19954;-69
2022/02/05 03:44:56;;;;;;;;;;;;;;;12.14;46.72;100786.00;4429758;32;19957;-69
2022/02/05 03:47:21;;;;;;;;;;;;;;;12.55;46.14;100790.81;4429071;32;21034;-69
2022/02/05 03:49:49;;;;;;;;;;;;;;;12.80;45.54;100793.63;4427492;32;20040;-69
2022/02/05 03:52:14;;;;;;;;;;;;;;;12.57;46.37;100789.09;4427053;32;19983;-69
2022/02/05 03:54:42;;;;;;;;;;;;;;;12.59;46.08;100789.47;4429803;32;20008;-69
2022/02/05 03:57:07;;;;;;;;;;;;;;;12.66;45.95;100780.75;4418333;32;19961;-69
2022/02/05 03:59:33;;;;;;;;;;;;;;;12.54;45.90;100783.56;4430107;32;20015;-69
2022/02/05 04:02:01;;;;;;;;;;;;;;;12.19;46.31;100777.00;4422432;32;20395;-69
2022/02/05 04:04:28;;;;;;;;;;;;;;;12.18;46.33;100780.25;4418001;32;19958;-69
2022/02/05 04:06:53;;;;;;;;;;;;;;;12.24;46.61;100775.66;4418868;32;20402;-69
2022/02/05 04:09:24;;;;;;;;;;;;;;;12.29;46.11;100784.34;4418254;32;19949;-69
2022/02/05 04:11:59;;;;;;;;;;;;;;;12.37;46.18;100791.34;4414795;32;19957;-69
2022/02/05 04:17:21;;;;;;;;;;;;;;;12.76;45.29;100788.09;4421993;32;19961;-69
2022/02/05 04:19:47;;;;;;;;;;;;;;;12.81;45.58;100786.72;4419358;32;20378;-69
2022/02/05 04:22:13;;;;;;;;;;;;;;;12.76;45.37;100787.31;4416239;32;21217;-69
2022/02/05 04:24:38;;;;;;;;;;;;;;;12.84;45.04;100783.00;4419164;32;20385;-69
2022/02/05 04:27:04;;;;;;;;;;;;;;;12.71;45.23;100777.38;4416077;32;20024;-69
2022/02/05 04:29:29;;;;;;;;;;;;;;;12.60;45.38;100782.56;4418901;32;19946;-69
2022/02/05 04:31:55;;;;;;;;;;;;;;;13.01;44.51;100779.63;4417773;32;20034;-69
2022/02/05 04:34:20;;;;;;;;;;;;;;;13.19;44.20;100781.88;4417341;32;19990;-69
2022/02/05 04:36:46;;;;;;;;;;;;;;;13.32;43.69;100786.22;4402145;32;19973;-69
2022/02/05 04:39:15;;;;;;;;;;;;;;;13.16;43.78;100792.03;4405569;32;20402;-69
2022/02/05 04:41:48;;;;;;;;;;;;;;;13.19;43.53;100799.59;4416823;32;20425;-69
2022/02/05 05:05:49;;;;;;;;;;;;;;;12.69;43.60;100793.16;3952059;32;15723630;-67
2022/02/05 05:08:35;;;;;;;;;;;;;;;12.69;43.60;100793.16;4429857;32;20001;-68
2022/02/05 05:11:46;;;;;;;;;;;;;;;11.98;44.65;100786.88;4429908;32;19967;-67
2022/02/05 05:21:54;;;;;;;;;;;;;;;11.22;45.49;100779.28;4435563;32;20029;-68
2022/02/05 05:24:19;;;;;;;;;;;;;;;11.24;45.13;100779.66;4437202;32;19953;-68
2022/02/05 05:26:45;;;;;;;;;;;;;;;11.19;45.73;100776.56;4434934;32;20369;-68
2022/02/05 05:29:10;;;;;;;;;;;;;;;11.07;46.19;100769.63;4435452;32;19985;-68
2022/02/05 05:31:36;;;;;;;;;;;;;;;11.31;45.66;100767.38;4435295;32;20038;-68
2022/02/05 05:34:01;;;;;;;;;;;;;;;11.21;45.65;100766.44;4434490;32;20328;-68
2022/02/05 05:36:28;;;;;;;;;;;;;;;11.18;45.82;100760.91;4435851;32;19953;-68
2022/02/05 05:38:59;;;;;;;;;;;;;;;10.96;46.32;100773.94;4438127;32;20347;-68
2022/02/05 05:41:24;;;;;;;;;;;;;;;10.81;46.83;100761.44;4433944;32;20000;-68
2022/02/05 05:44:04;;;;;;;;;;;;;;;10.65;47.22;100762.22;4432980;32;19963;-68
2022/02/05 05:46:47;;;;;;;;;;;;;;;10.83;46.77;100756.19;4433861;32;20036;-68
2022/02/05 05:49:18;;;;;;;;;;;;;;;10.79;46.75;100756.25;4433518;32;19958;-68
2022/02/05 05:51:46;;;;;;;;;;;;;;;10.54;47.46;100760.91;4436872;32;20049;-68
2022/02/05 05:54:12;;;;;;;;;;;;;;;10.46;47.87;100765.91;4434393;32;19997;-68
2022/02/05 05:56:37;;;;;;;;;;;;;;;10.62;47.59;100756.69;4434368;32;19949;-68
2022/02/05 05:59:03;;;;;;;;;;;;;;;10.41;47.91;100763.63;4431760;32;20030;-68
2022/02/05 06:01:29;;;;;;;;;;;;;;;10.67;47.35;100753.34;4435678;32;19953;-68
2022/02/05 06:03:55;;;;;;;;;;;;;;;10.49;47.64;100753.00;4434349;32;20295;-68
2022/02/05 06:06:21;;;;;;;;;;;;;;;10.51;47.67;100756.94;4434295;32;19997;-68
2022/02/05 06:08:46;;;;;;;;;;;;;;;10.61;47.35;100746.69;4434697;32;20329;-68
2022/02/05 06:11:12;;;;;;;;;;;;;;;10.58;47.35;100739.13;4433434;32;20075;-68
2022/02/05 06:13:37;;;;;;;;;;;;;;;10.48;47.72;100749.37;4431851;32;19957;-69
2022/02/05 06:16:07;;;;;;;;;;;;;;;10.50;47.56;100738.50;4432211;32;19997;-68
2022/02/05 06:18:33;;;;;;;;;;;;;;;10.77;47.20;100727.75;4432996;32;19991;-68
2022/02/05 06:20:58;;;;;;;;;;;;;;;10.61;47.30;100733.38;4432928;32;19957;-68
2022/02/05 06:23:24;;;;;;;;;;;;;;;10.40;47.59;100733.09;4421023;32;20013;-67
2022/02/05 06:25:50;;;;;;;;;;;;;;;10.34;47.62;100732.03;4432124;32;20370;-67
2022/02/05 06:28:16;;;;;;;;;;;;;;;10.28;47.85;100731.75;4427123;32;19953;-67
2022/02/05 06:30:42;;;;;;;;;;;;;;;10.62;47.33;100731.38;4421714;32;20319;-68
2022/02/05 06:33:08;;;;;;;;;;;;;;;10.74;46.75;100720.19;4419542;32;19969;-68
2022/02/05 06:35:33;;;;;;;;;;;;;;;10.85;46.53;100725.53;4423324;32;20251;-68
2022/02/05 06:38:00;;;;;;;;;;;;;;;10.84;46.56;100721.97;4424056;32;19961;-68
2022/02/05 06:40:26;;;;;;;;;;;;;;;10.96;45.89;100724.06;4424799;32;20379;-68
2022/02/05 06:42:51;;;;;;;;;;;;;;;11.05;45.94;100721.37;4423843;32;19972;-68
2022/02/05 06:45:17;;;;;;;;;;;;;;;10.84;45.96;100713.53;4426227;32;19953;-68
2022/02/05 06:47:43;;;;;;;;;;;;;;;11.05;45.76;100710.12;4424285;32;19972;-68
2022/02/05 06:50:08;;;;;;;;;;;;;;;11.22;45.32;100725.78;4421897;32;19991;-68
2022/02/05 06:52:34;;;;;;;;;;;;;;;10.98;45.58;100718.00;4422677;32;19993;-68
2022/02/05 06:55:00;;;;;;;;;;;;;;;11.22;45.28;100711.69;4424482;32;19969;-68
2022/02/05 06:57:25;;;;;;;;;;;;;;;11.18;45.30;100719.44;4424964;32;19987;-68
2022/02/05 06:59:51;;;;;;;;;;;;;;;10.71;46.52;100714.66;4422442;32;20298;-68
2022/02/05 07:02:16;;;;;;;;;;;;;;;10.95;45.75;100714.03;4422847;32;19961;-68
2022/02/05 07:04:42;;;;;;;;;;;;;;;10.88;46.16;100710.59;4408480;32;20029;-68
2022/02/05 07:07:08;;;;;;;;;;;;;;;11.12;45.60;100717.59;4425028;32;19989;-68
2022/02/05 07:09:37;;;;;;;;;;;;;;;11.09;45.81;100721.31;4424234;32;19958;-68
2022/02/05 07:12:02;;;;;;;;;;;;;;;10.94;46.01;100720.09;4420589;32;19968;-68
2022/02/05 07:14:35;;;;;;;;;;;;;;;11.17;45.83;100725.53;4421898;32;20420;-68
2022/02/05 07:17:09;;;;;;;;;;;;;;;11.27;45.48;100718.81;4421978;32;20006;-68
2022/02/05 07:22:31;;;;;;;;;;;;;;;11.73;45.04;100723.97;3952759;32;15725532;-67
2022/02/05 07:30:33;;;;;;;;;;;;;;;11.96;44.89;100707.56;4431956;32;20367;-67
2022/02/05 07:32:59;;;;;;;;;;;;;;;11.38;45.80;100691.13;4430604;32;19964;-67
2022/02/05 07:35:25;;;;;;;;;;;;;;;11.71;45.38;100689.78;4429220;32;20266;-67
2022/02/05 07:37:55;;;;;;;;;;;;;;;11.85;44.92;100697.84;4432424;32;20247;-68
2022/02/05 07:40:21;;;;;;;;;;;;;;;11.93;44.68;100694.34;4432114;32;20345;-68
2022/02/05 07:42:48;;;;;;;;;;;;;;;11.91;44.91;100696.06;4429964;32;19971;-68
2022/02/05 07:45:13;;;;;;;;;;;;;;;12.15;44.46;100685.25;4428943;32;19961;-68
2022/02/05 07:47:39;;;;;;;;;;;;;;;12.09;44.59;100685.03;4430904;32;19968;-68
2022/02/05 07:50:05;;;;;;;;;;;;;;;12.35;44.29;100678.13;4431117;32;20000;-68
2022/02/05 07:52:30;;;;;;;;;;;;;;;11.78;45.20;100672.66;4426819;32;20105;-68
2022/02/05 07:54:55;;;;;;;;;;;;;;;11.84;45.27;100674.47;4430916;32;20028;-68
2022/02/05 07:57:21;;;;;;;;;;;;;;;11.93;45.28;100665.34;4429347;32;19997;-68
2022/02/05 07:59:46;;;;;;;;;;;;;;;11.83;45.55;100674.94;4429288;32;20003;-68
2022/02/05 08:02:12;;;;;;;;;;;;;;;12.09;45.17;100668.09;4413412;32;19993;-68
2022/02/05 08:04:37;;;;;;;;;;;;;;;11.94;45.36;100661.31;4429106;32;19953;-68
2022/02/05 08:07:06;;;;;;;;;;;;;;;12.22;44.81;100648.34;4412462;32;19996;-68
2022/02/05 08:09:49;;;;;;;;;;;;;;;12.10;45.19;100653.50;4431106;32;19999;-68
2022/02/05 08:12:16;;;;;;;;;;;;;;;11.94;45.63;100647.22;4428667;32;19957;-68
2022/02/05 08:14:46;;;;;;;;;;;;;;;12.00;45.40;100629.25;4429124;32;20093;-68
2022/02/05 08:17:23;;;;;;;;;;;;;;;12.23;44.92;100621.69;4430549;32;20001;-68
2022/02/05 08:19:49;;;;;;;;;;;;;;;12.00;45.42;100634.91;4432197;32;19981;-68
2022/02/05 08:22:15;;;;;;;;;;;;;;;11.95;45.88;100629.03;4427450;32;20031;-68
2022/02/05 08:24:40;;;;;;;;;;;;;;;12.26;45.24;100617.97;4430263;32;19980;-68
2022/02/05 08:27:06;;;;;;;;;;;;;;;12.10;45.48;100613.25;4430310;32;19953;-68
2022/02/05 08:29:33;;;;;;;;;;;;;;;12.52;44.92;100609.00;4434713;32;19993;-68
2022/02/05 08:32:01;;;;;;;;;;;;;;;12.25;45.10;100597.44;4427977;32;20079;-68
2022/02/05 08:34:26;;;;;;;;;;;;;;;12.32;45.54;100596.41;4414756;32;20022;-68
2022/02/05 08:36:56;;;;;;;;;;;;;;;12.21;45.66;100581.88;4429786;32;19965;-68
2022/02/05 08:39:22;;;;;;;;;;;;;;;12.54;45.23;100583.13;4417718;32;20364;-68
2022/02/05 08:41:47;;;;;;;;;;;;;;;12.73;44.88;100590.56;4420612;32;19961;-68
2022/02/05 08:44:13;;;;;;;;;;;;;;;12.16;45.96;100586.06;4415878;32;20018;-68
2022/02/05 08:46:38;;;;;;;;;;;;;;;12.18;46.15;100585.59;4422035;32;19945;-68
2022/02/05 08:49:04;;;;;;;;;;;;;;;12.61;45.26;100580.88;4422731;32;19961;-68
2022/02/05 08:51:31;;;;;;;;;;;;;;;12.93;44.68;100557.94;4416815;32;19953;-68
2022/02/05 08:53:58;;;;;;;;;;;;;;;12.39;45.69;100568.72;4416627;32;20004;-68
2022/02/05 08:56:24;;;;;;;;;;;;;;;12.59;45.32;100560.78;4421351;32;19968;-68
2022/02/05 08:58:50;;;;;;;;;;;;;;;12.94;44.37;100551.03;4405735;32;20318;-68
2022/02/05 09:01:21;;;;;;;;;;;;;;;13.01;44.51;100547.22;4416497;32;20009;-68
2022/02/05 09:04:10;;;;;;;;;;;;;;;13.09;44.30;100549.28;4418952;32;20060;-68
2022/02/05 09:06:39;;;;;;;;;;;;;;;12.90;44.54;100546.75;4419278;32;19998;-68
2022/02/05 09:09:21;;;;;;;;;;;;;;;12.89;44.79;100548.78;4419408;32;19990;-68
2022/02/05 09:11:55;;;;;;;;;;;;;;;13.16;44.40;100546.19;4414740;32;19961;-68
2022/02/05 09:14:40;;;;;;;;;;;;;;;13.32;43.82;100534.69;4418568;32;20023;-69
2022/02/05 09:17:05;;;;;;;;;;;;;;;13.18;44.33;100531.63;4418989;32;19961;-69
2022/02/05 09:19:33;;;;;;;;;;;;;;;13.10;44.53;100536.75;4418233;32;20850;-69
2022/02/05 09:21:59;;;;;;;;;;;;;;;12.80;44.70;100531.81;4416030;32;20305;-68
2022/02/05 09:24:24;;;;;;;;;;;;;;;13.18;44.55;100518.28;4420920;32;20324;-68
2022/02/05 09:26:57;;;;;;;;;;;;;;;13.18;44.93;100509.81;4420013;32;19957;-68
2022/02/05 09:29:23;;;;;;;;;;;;;;;13.28;44.70;100499.31;4421932;32;20323;-68
2022/02/05 09:31:49;;;;;;;;;;;;;;;13.48;44.25;100497.72;4414694;32;19968;-68
2022/02/05 09:34:16;;;;;;;;;;;;;;;13.32;44.58;100486.62;4420537;32;19945;-67
2022/02/05 09:36:42;;;;;;;;;;;;;;;13.11;45.32;100486.69;4416821;32;19993;-68
2022/02/05 09:39:08;;;;;;;;;;;;;;;13.32;44.90;100483.81;4417600;32;19967;-68
2022/02/05 09:41:34;;;;;;;;;;;;;;;13.28;45.15;100477.50;4414320;32;19957;-68
2022/02/05 09:44:00;;;;;;;;;;;;;;;13.40;44.76;100479.47;4416994;32;19946;-68
2022/02/05 09:46:26;;;;;;;;;;;;;;;13.42;44.67;100471.31;4418776;32;20309;-68
2022/02/05 09:48:52;;;;;;;;;;;;;;;13.42;44.78;100474.13;4416563;32;20033;-68
2022/02/05 09:51:19;;;;;;;;;;;;;;;13.74;44.38;100458.69;4416645;32;20016;-68
2022/02/05 09:53:47;;;;;;;;;;;;;;;14.11;43.84;100462.41;4417711;32;20280;-68
2022/02/05 09:56:12;;;;;;;;;;;;;;;13.87;44.09;100454.47;4403032;32;20003;-68
2022/02/05 09:58:38;;;;;;;;;;;;;;;13.48;44.92;100444.00;4420757;32;19957;-68
2022/02/05 10:01:09;;;;;;;;;;;;;;;13.84;44.38;100438.44;4419393;32;19949;-68
2022/02/05 10:03:35;;;;;;;;;;;;;;;13.78;44.68;100445.97;4416953;32;20458;-68
2022/02/05 10:06:05;;;;;;;;;;;;;;;14.13;44.11;100440.06;4418687;32;20285;-68
2022/02/05 10:08:33;;;;;;;;;;;;;;;14.06;44.01;100436.28;4416291;32;20419;-68
2022/02/05 10:10:59;;;;;;;;;;;;;;;14.44;43.51;100424.53;4416889;32;19967;-68
2022/02/05 10:13:27;;;;;;;;;;;;;;;14.64;43.06;100413.53;4415575;32;20042;-68
2022/02/05 10:15:54;;;;;;;;;;;;;;;14.30;43.63;100421.56;4416367;32;20826;-68
2022/02/05 10:18:22;;;;;;;;;;;;;;;14.47;43.80;100409.44;4418889;32;19968;-68
2022/02/05 10:20:48;;;;;;;;;;;;;;;14.54;43.80;100408.34;4413332;32;19953;-68
2022/02/05 10:23:14;;;;;;;;;;;;;;;14.70;43.47;100408.78;4416782;32;20460;-68
2022/02/05 10:25:39;;;;;;;;;;;;;;;14.62;43.49;100401.09;4419112;32;19976;-68
2022/02/05 10:28:09;;;;;;;;;;;;;;;14.81;43.49;100417.56;4417685;32;19961;-68
2022/02/05 10:30:35;;;;;;;;;;;;;;;14.90;43.45;100383.56;4418560;32;20004;-68
2022/02/05 10:33:06;;;;;;;;;;;;;;;14.90;43.45;100380.72;4416952;32;19994;-68
2022/02/05 10:46:51;;;;;;;;;;;;;;;14.88;46.02;100373.97;3967404;31;15721136;-68
2022/02/05 10:49:34;;;;;;;;;;;;;;;14.88;46.02;100373.97;4449562;32;20000;-67
2022/02/05 10:52:01;;;;;;;;;;;;;;;14.37;46.82;100371.09;4452273;32;20429;-68
2022/02/05 10:54:50;;;;;;;;;;;;;;;14.80;46.44;100352.91;4449204;32;20405;-68
2022/02/05 10:57:23;;;;;;;;;;;;;;;14.77;46.51;100365.19;4453093;32;19969;-68
2022/02/05 11:00:01;;;;;;;;;;;;;;;14.76;46.52;100346.63;4450941;32;19949;-68
2022/02/05 11:05:31;;;;;;;;;;;;;;;14.99;46.35;100338.19;4454124;32;20012;-68
2022/02/05 11:07:56;;;;;;;;;;;;;;;15.36;45.08;100335.94;4452107;32;19997;-68
2022/02/05 11:10:56;;;;;;;;;;;;;;;15.51;44.81;100329.13;4452169;32;19997;-67
2022/02/05 11:16:07;;;;;;;;;;;;;;;15.98;43.97;100334.78;4452606;32;20011;-68
2022/02/05 11:19:04;;;;;;;;;;;;;;;16.30;43.15;100324.56;4452164;32;19985;-68
2022/02/05 11:21:18;;;;;;;;;;;;;;;15.68;44.02;100330.25;4450209;32;20033;-68
2022/02/05 11:23:46;;;;;;;;;;;;;;;16.09;43.63;100322.06;4449877;32;20008;-68
2022/02/05 11:26:13;;;;;;;;;;;;;;;16.39;43.10;100332.19;4451110;32;20023;-68
2022/02/05 11:28:43;;;;;;;;;;;;;;;16.28;43.31;100318.56;4453769;32;19952;-68
2022/02/05 11:31:11;;;;;;;;;;;;;;;16.86;42.46;100307.25;4450770;32;19960;-68
2022/02/05 11:33:37;;;;;;;;;;;;;;;16.81;42.36;100299.41;4450786;32;19957;-69
2022/02/05 11:38:57;;;;;;;;;;;;;;;17.15;41.33;100275.13;3952741;32;15723270;-69
2022/02/05 11:41:27;;;;;;;;;;;;;;;17.25;41.24;100268.78;4428996;32;19993;-69
2022/02/05 11:44:13;;;;;;;;;;;;;;;17.46;41.07;100276.09;4431468;32;20027;-68
2022/02/05 11:46:38;;;;;;;;;;;;;;;17.46;40.78;100261.88;4432915;32;21561;-68
2022/02/05 11:49:06;;;;;;;;;;;;;;;17.33;40.95;100257.78;4429355;32;19949;-69
2022/02/05 11:51:33;;;;;;;;;;;;;;;17.19;41.09;100255.78;4426362;32;19953;-69
2022/02/05 11:59:08;;;;;;;;;;;;;;;18.60;38.85;100245.03;3952189;32;15722492;-69
2022/02/05 12:01:36;;;;;;;;;;;;;;;18.60;38.85;100245.03;4430000;32;19957;-69
2022/02/05 12:06:53;;;;;;;;;;;;;;;18.85;38.81;100233.56;3904091;32;15725200;-69
2022/02/05 12:09:38;;;;;;;;;;;;;;;18.85;38.81;100233.56;4383393;32;19993;-68
2022/02/05 12:28:51;;;;;;;;;;;;;;;17.14;43.63;100211.00;3938856;32;15734607;-69
2022/02/05 12:33:54;;;;;;;;;;;;;;;16.91;44.32;100209.91;3966646;31;15718923;-69
2022/02/05 12:39:03;;;;;;;;;;;;;;;16.61;45.74;100188.53;3953411;32;15722372;-69
2022/02/05 12:41:30;;;;;;;;;;;;;;;16.61;45.74;100188.53;4433005;32;20004;-68
2022/02/05 12:43:58;;;;;;;;;;;;;;;16.60;45.46;100194.72;4427722;32;20008;-68
2022/02/05 12:46:27;;;;;;;;;;;;;;;16.17;46.65;100187.75;4428192;32;20056;-68
2022/02/05 12:48:58;;;;;;;;;;;;;;;16.46;46.55;100182.09;4430558;32;20007;-68
2022/02/05 12:51:25;;;;;;;;;;;;;;;16.31;47.16;100172.78;4429208;32;20005;-68
2022/02/05 12:53:51;;;;;;;;;;;;;;;16.28;47.13;100158.78;4426100;32;20001;-68
2022/02/05 12:56:18;;;;;;;;;;;;;;;16.49;46.67;100164.06;4431055;32;20401;-68
2022/02/05 12:59:03;;;;;;;;;;;;;;;16.10;47.29;100142.75;4430588;32;19962;-69
2022/02/05 13:01:29;;;;;;;;;;;;;;;15.53;47.84;100167.75;4431559;32;19993;-69
2022/02/05 13:04:15;;;;;;;;;;;;;;;15.67;48.59;100150.00;4430820;32;20008;-68
2022/02/05 13:06:42;;;;;;;;;;;;;;;15.74;49.20;100149.59;4431126;32;19969;-68
2022/02/05 13:09:24;;;;;;;;;;;;;;;15.30;49.72;100136.59;4430466;32;19991;-67
2022/02/05 13:11:59;;;;;;;;;;;;;;;14.78;50.69;100151.47;4431538;32;19993;-68
2022/02/05 13:14:45;;;;;;;;;;;;;;;14.67;50.98;100132.16;4432836;32;19988;-68
2022/02/05 13:33:49;;;;;;;;;;;;;;;15.25;51.05;100112.53;3951045;32;15725583;-68
2022/02/05 13:36:17;;;;;;;;;;;;;;;15.25;51.05;100112.53;4424791;32;19989;-68
2022/02/05 13:41:48;;;;;;;;;;;;;;;15.35;50.97;100082.84;3950808;32;15722378;-68
2022/02/05 13:44:17;;;;;;;;;;;;;;;15.35;50.97;100082.84;4430072;32;20349;-69
2022/02/05 13:46:58;;;;;;;;;;;;;;;14.67;52.33;100069.88;4427886;32;20347;-69
2022/02/05 13:49:24;;;;;;;;;;;;;;;14.64;52.24;100078.56;4430731;32;19960;-69
2022/02/05 13:51:50;;;;;;;;;;;;;;;14.60;52.39;100060.97;4429578;32;20096;-68
2022/02/05 13:54:15;;;;;;;;;;;;;;;14.62;52.96;100062.06;4430421;32;19968;-68
2022/02/05 13:56:41;;;;;;;;;;;;;;;14.76;52.20;100060.53;4429644;32;20438;-68
2022/02/05 13:59:18;;;;;;;;;;;;;;;14.60;52.81;100066.63;4428159;32;19995;-69
2022/02/05 14:01:43;;;;;;;;;;;;;;;14.55;52.28;100058.81;4427461;32;20571;-68
2022/02/05 14:04:12;;;;;;;;;;;;;;;14.68;52.30;100068.63;4426216;32;19967;-68
2022/02/05 14:06:54;;;;;;;;;;;;;;;14.47;52.56;100051.91;4427383;32;20109;-69
2022/02/05 14:09:21;;;;;;;;;;;;;;;14.76;52.84;100052.81;4431431;32;20046;-69
2022/02/05 14:11:46;;;;;;;;;;;;;;;14.25;53.29;100057.09;4430177;32;20343;-69
2022/02/05 14:14:19;;;;;;;;;;;;;;;14.53;53.01;100064.94;4429069;32;19949;-69
2022/02/05 14:16:46;;;;;;;;;;;;;;;15.07;52.45;100043.91;4428998;32;20078;-69
2022/02/05 14:19:28;;;;;;;;;;;;;;;14.44;52.53;100038.72;4428444;32;20034;-68
2022/02/05 14:21:55;;;;;;;;;;;;;;;14.20;53.27;100046.41;4426075;32;19988;-69
2022/02/05 14:24:23;;;;;;;;;;;;;;;14.56;52.94;100023.53;4426307;32;20005;-69
2022/02/05 14:26:56;;;;;;;;;;;;;;;14.68;52.97;100034.63;4431705;32;20052;-69
2022/02/05 14:29:21;;;;;;;;;;;;;;;14.41;53.47;100031.19;4429670;32;19953;-69
2022/02/05 14:31:53;;;;;;;;;;;;;;;14.46;53.63;100030.53;4425792;32;19983;-69
2022/02/05 14:34:22;;;;;;;;;;;;;;;14.67;52.85;100037.94;4427842;32;19953;-69
2022/02/05 14:42:20;;;;;;;;;;;;;;;14.87;52.72;100012.59;4430799;32;20406;-70
2022/02/05 14:44:46;;;;;;;;;;;;;;;14.63;53.24;100023.97;4430384;32;20071;-70
2022/02/05 14:47:12;;;;;;;;;;;;;;;14.78;52.64;100009.84;4429685;32;20289;-70
2022/02/05 14:49:38;;;;;;;;;;;;;;;14.48;53.35;100011.03;4431086;32;19992;-70
2022/02/05 14:52:06;;;;;;;;;;;;;;;14.93;52.55;100028.44;4428442;32;20595;-69
2022/02/05 14:54:33;;;;;;;;;;;;;;;14.86;52.52;100028.03;4430190;32;20013;-69
2022/02/05 14:56:59;;;;;;;;;;;;;;;14.40;53.55;100019.09;4427528;32;19961;-70
2022/02/05 14:59:25;;;;;;;;;;;;;;;14.56;53.13;100021.50;4434332;32;19968;-69
2022/02/05 15:01:50;;;;;;;;;;;;;;;14.93;53.14;100017.13;4429957;32;19968;-70
2022/02/05 15:04:16;;;;;;;;;;;;;;;14.64;53.20;99993.59;4429165;32;19961;-69
2022/02/05 15:06:44;;;;;;;;;;;;;;;14.86;53.24;100009.00;4429923;32;19997;-69
2022/02/05 15:09:09;;;;;;;;;;;;;;;14.72;53.27;100006.09;4427615;32;19965;-69
2022/02/05 15:11:35;;;;;;;;;;;;;;;14.71;53.48;100011.00;4426847;32;20031;-69
2022/02/05 15:14:02;;;;;;;;;;;;;;;14.84;52.85;100010.72;4430149;32;19954;-70
2022/02/05 15:16:29;;;;;;;;;;;;;;;14.75;52.96;100005.12;4432624;32;19977;-70
2022/02/05 15:18:57;;;;;;;;;;;;;;;14.50;53.88;100000.78;4429431;32;19965;-68
2022/02/05 15:21:25;;;;;;;;;;;;;;;14.52;53.52;100008.81;4429396;32;20047;-68
2022/02/05 15:23:51;;;;;;;;;;;;;;;14.66;53.75;99997.50;4428408;32;20077;-69
2022/02/05 15:26:18;;;;;;;;;;;;;;;14.38;53.87;99995.38;4411518;32;20651;-70
2022/02/05 15:28:44;;;;;;;;;;;;;;;14.66;53.20;99994.69;4431782;32;20321;-68
2022/02/05 15:31:09;;;;;;;;;;;;;;;14.42;53.72;99993.91;4426558;32;19961;-69
2022/02/05 15:33:41;;;;;;;;;;;;;;;14.63;53.76;99978.66;4429201;32;19989;-69
2022/02/05 15:36:08;;;;;;;;;;;;;;;14.51;53.68;99991.03;4427407;32;20007;-69
2022/02/05 15:38:44;;;;;;;;;;;;;;;14.53;53.66;99973.56;4428608;32;19993;-69
2022/02/05 15:43:53;;;;;;;;;;;;;;;15.14;52.70;99969.84;3960184;31;15718314;-69
2022/02/05 15:46:19;;;;;;;;;;;;;;;15.14;52.70;99969.84;4434077;32;20382;-69
2022/02/05 15:48:45;;;;;;;;;;;;;;;14.69;53.22;99950.44;4429783;32;20018;-69
2022/02/05 15:51:11;;;;;;;;;;;;;;;14.84;53.08;99968.25;4435082;32;19985;-69
2022/02/05 15:53:45;;;;;;;;;;;;;;;14.71;53.38;99937.38;4432038;32;20078;-69
2022/02/05 15:56:22;;;;;;;;;;;;;;;14.77;53.57;99931.81;4433370;32;20138;-69
2022/02/05 15:58:49;;;;;;;;;;;;;;;14.74;53.82;99921.44;4427152;32;19968;-69
2022/02/05 16:01:15;;;;;;;;;;;;;;;14.77;53.41;99929.78;4433188;32;20010;-69
2022/02/05 16:03:41;;;;;;;;;;;;;;;14.47;53.96;99916.03;4432696;32;19998;-69
2022/02/05 16:06:07;;;;;;;;;;;;;;;14.62;53.90;99911.19;4432299;32;20560;-69
2022/02/05 16:08:32;;;;;;;;;;;;;;;14.78;53.76;99908.66;4434697;32;19989;-69